createdAt,value
2023-01-04T00:01:38.040Z,92955.03
2023-01-04T00:04:10.396Z,92949.59
2023-01-04T00:06:43.601Z,92958.97
2023-01-04T00:09:15.925Z,92954.13
2023-01-04T00:11:48.288Z,92956.22
2023-01-04T00:14:20.645Z,92959.75
2023-01-04T00:16:53.167Z,92958.56
2023-01-04T00:19:25.593Z,92958.94
2023-01-04T00:21:58.823Z,92962.25
2023-01-04T00:24:31.227Z,92959.69
2023-01-04T00:27:03.727Z,92954.63
2023-01-04T00:29:36.272Z,92966.88
2023-01-04T00:32:08.733Z,92961.47
2023-01-04T00:34:41.196Z,92973.41
2023-01-04T00:37:14.321Z,92960.97
2023-01-04T00:39:46.686Z,92968.06
2023-01-04T00:42:19.068Z,92967.84
2023-01-04T00:44:51.447Z,92976.16
2023-01-04T00:47:23.880Z,92972.31
2023-01-04T00:49:56.207Z,92973.41
2023-01-04T00:52:29.218Z,92968.50
2023-01-04T00:55:01.941Z,92963.31
2023-01-04T00:57:34.406Z,92964.88
2023-01-04T01:00:08.017Z,92964.41
2023-01-04T01:02:40.683Z,92958.44
2023-01-04T01:05:13.158Z,92967.03
2023-01-04T01:07:46.186Z,92965.75
2023-01-04T01:10:18.560Z,92969.06
2023-01-04T01:12:50.956Z,92965.44
2023-01-04T01:15:23.248Z,92973.75
2023-01-04T01:17:55.612Z,92973.69
2023-01-04T01:20:27.973Z,92967.53
2023-01-04T01:23:01.475Z,92972.53
2023-01-04T01:25:33.994Z,92970.22
2023-01-04T01:28:06.574Z,92967.63
2023-01-04T01:30:40.550Z,92964.06
2023-01-04T01:33:12.997Z,92967.44
2023-01-04T01:35:45.341Z,92964.84
2023-01-04T01:38:18.351Z,92967.69
2023-01-04T01:40:50.657Z,92973.69
2023-01-04T01:43:44.059Z,92969.22
2023-01-04T01:46:21.381Z,92966.69
2023-01-04T01:48:56.739Z,92965.94
2023-01-04T01:51:31.524Z,92956.56
2023-01-04T01:54:09.433Z,92961.03
2023-01-04T01:56:44.402Z,92956.34
2023-01-04T01:59:18.447Z,92955.84
2023-01-04T02:01:51.066Z,92952.19
2023-01-04T02:04:24.261Z,92954.00
2023-01-04T02:06:59.169Z,92948.81
2023-01-04T02:09:33.063Z,92944.41
2023-01-04T02:12:05.495Z,92951.41
2023-01-04T02:14:38.207Z,92950.63
2023-01-04T02:17:16.783Z,92940.50
2023-01-04T02:20:17.608Z,92949.34
2023-01-04T02:23:35.843Z,92946.97
2023-01-04T02:26:53.273Z,92940.47
2023-01-04T02:30:04.885Z,92943.59
2023-01-04T02:32:59.495Z,92940.69
2023-01-04T02:35:41.249Z,92937.59
2023-01-04T02:38:20.892Z,92934.91
2023-01-04T02:40:59.548Z,92927.94
2023-01-04T02:43:55.488Z,92916.47
2023-01-04T02:46:31.964Z,92922.44
2023-01-04T02:49:22.941Z,92926.81
2023-01-04T02:51:55.330Z,92930.97
2023-01-04T02:54:31.808Z,92930.19
2023-01-04T02:57:22.008Z,92925.78
2023-01-04T03:00:27.709Z,92931.47
2023-01-04T03:03:33.911Z,92927.31
2023-01-04T03:06:16.084Z,92928.34
2023-01-04T03:09:03.187Z,92914.84
2023-01-04T03:11:59.053Z,92922.91
2023-01-04T03:14:35.112Z,92918.75
2023-01-04T03:17:11.376Z,92920.03
2023-01-04T03:19:54.377Z,92923.63
2023-01-04T03:22:51.889Z,92914.56
2023-01-04T03:25:49.265Z,92924.38
2023-01-04T03:28:44.253Z,92921.50
2023-01-04T03:31:39.912Z,92926.09
2023-01-04T03:34:30.657Z,92918.53
2023-01-04T03:37:11.097Z,92926.31
2023-01-04T03:40:30.121Z,92931.00
2023-01-04T03:43:26.876Z,92924.25
2023-01-04T03:46:23.613Z,92928.88
2023-01-04T03:49:05.318Z,92927.22
2023-01-04T03:51:38.705Z,92919.22
2023-01-04T03:54:16.974Z,92923.03
2023-01-04T03:56:51.037Z,92933.03
2023-01-04T03:59:23.829Z,92932.75
2023-01-04T04:01:56.520Z,92933.78
2023-01-04T04:04:46.889Z,92943.38
2023-01-04T04:07:37.303Z,92937.91
2023-01-04T04:10:09.742Z,92943.25
2023-01-04T04:12:42.801Z,92941.38
2023-01-04T04:15:15.546Z,92945.22
2023-01-04T04:17:47.875Z,92946.25
2023-01-04T04:20:20.213Z,92943.56
2023-01-04T04:22:52.890Z,92945.13
2023-01-04T04:25:25.243Z,92944.66
2023-01-04T04:27:58.365Z,92946.09
2023-01-04T04:30:30.880Z,92937.81
2023-01-04T04:33:03.355Z,92945.63
2023-01-04T04:35:35.686Z,92940.97
2023-01-04T04:38:08.121Z,92948.75
2023-01-04T04:40:58.811Z,92942.06
2023-01-04T04:43:32.531Z,92934.28
2023-01-04T04:46:05.187Z,92951.22
2023-01-04T04:48:37.671Z,92941.94
2023-01-04T04:51:10.020Z,92943.44
2023-01-04T04:53:42.785Z,92948.16
2023-01-04T04:56:15.306Z,92948.97
2023-01-04T04:58:49.014Z,92952.66
2023-01-04T05:01:21.546Z,92959.91
2023-01-04T05:03:54.035Z,92959.66
2023-01-04T05:06:26.535Z,92947.50
2023-01-04T05:08:59.232Z,92950.38
2023-01-04T05:11:49.810Z,92958.19
2023-01-04T05:14:22.839Z,92962.28
2023-01-04T05:16:55.215Z,92964.19
2023-01-04T05:19:27.804Z,92967.31
2023-01-04T05:22:00.117Z,92961.88
2023-01-04T05:24:32.905Z,92965.53
2023-01-04T05:27:05.171Z,92971.03
2023-01-04T05:29:56.643Z,92967.84
2023-01-04T05:32:29.131Z,92967.31
2023-01-04T05:35:01.947Z,92971.53
2023-01-04T05:37:34.231Z,92977.78
2023-01-04T05:40:07.090Z,92973.63
2023-01-04T05:42:39.503Z,92979.63
2023-01-04T05:45:13.662Z,92985.44
2023-01-04T05:47:48.073Z,92984.81
2023-01-04T05:50:22.346Z,92992.59
2023-01-04T05:52:54.692Z,93003.25
2023-01-04T05:55:27.116Z,93000.19
2023-01-04T05:57:59.682Z,92990.22
2023-01-04T06:00:32.716Z,92989.47
2023-01-04T06:03:05.116Z,92999.34
2023-01-04T06:05:37.608Z,92991.59
2023-01-04T06:08:09.960Z,93002.75
2023-01-04T06:10:42.446Z,92996.59
2023-01-04T06:13:14.752Z,93000.03
2023-01-04T06:15:47.840Z,92995.38
2023-01-04T06:18:20.173Z,92992.81
2023-01-04T06:20:52.528Z,93002.13
2023-01-04T06:23:24.820Z,93002.06
2023-01-04T06:25:57.171Z,93009.59
2023-01-04T06:28:29.628Z,93010.69
2023-01-04T06:31:04.617Z,93017.72
2023-01-04T06:33:37.398Z,93014.88
2023-01-04T06:36:19.994Z,93019.03
2023-01-04T06:38:52.941Z,93016.25
2023-01-04T06:41:25.917Z,93019.38
2023-01-04T06:43:58.305Z,93019.88
2023-01-04T06:46:31.418Z,93024.91
2023-01-04T06:49:03.912Z,93016.56
2023-01-04T06:51:36.385Z,93025.44
2023-01-04T06:54:11.078Z,93026.00
2023-01-04T06:56:43.500Z,93017.66
2023-01-04T06:59:15.874Z,93018.81
2023-01-04T07:01:48.995Z,93021.41
2023-01-04T07:04:21.483Z,93013.75
2023-01-04T07:06:53.897Z,93013.81
2023-01-04T07:09:26.191Z,93021.84
2023-01-04T07:11:59.256Z,93026.06
2023-01-04T07:14:31.635Z,93026.84
2023-01-04T07:17:04.736Z,93031.31
2023-01-04T07:19:37.063Z,93025.13
2023-01-04T07:22:09.447Z,93035.00
2023-01-04T07:24:42.490Z,93040.44
2023-01-04T07:27:15.232Z,93043.88
2023-01-04T07:29:47.535Z,93043.66
2023-01-04T07:32:20.630Z,93040.56
2023-01-04T07:34:53.136Z,93043.47
2023-01-04T07:37:25.528Z,93043.75
2023-01-04T07:39:57.873Z,93046.53
2023-01-04T07:42:30.980Z,93043.59
2023-01-04T07:45:03.833Z,93044.22
2023-01-04T07:47:37.071Z,93036.06
2023-01-04T07:50:09.794Z,93036.38
2023-01-04T07:52:42.165Z,93036.41
2023-01-04T07:55:14.575Z,93038.78
2023-01-04T07:57:47.013Z,93043.78
2023-01-04T08:00:19.660Z,93044.59
2023-01-04T08:02:52.822Z,93045.19
2023-01-04T08:05:25.349Z,93045.72
2023-01-04T08:07:57.787Z,93040.50
2023-01-04T08:10:30.121Z,93043.59
2023-01-04T08:19:14.088Z,93052.63
2023-01-04T08:21:47.630Z,93044.66
2023-01-04T08:24:20.089Z,93038.03
2023-01-04T08:26:52.476Z,93040.63
2023-01-04T08:29:28.125Z,93041.34
2023-01-04T08:32:05.962Z,93040.44
2023-01-04T08:34:38.985Z,93042.28
2023-01-04T08:37:11.609Z,93043.53
2023-01-04T08:39:48.669Z,93041.75
2023-01-04T08:42:28.635Z,93043.41
2023-01-04T08:45:04.610Z,93044.22
2023-01-04T08:47:37.001Z,93040.72
2023-01-04T08:50:11.116Z,93045.38
2023-01-04T08:52:43.604Z,93048.47
2023-01-04T08:55:21.459Z,93043.41
2023-01-04T08:57:55.635Z,93046.25
2023-01-04T09:00:27.988Z,93053.81
2023-01-04T09:03:00.479Z,93050.53
2023-01-04T09:05:33.612Z,93049.38
2023-01-04T09:08:06.629Z,93050.47
2023-01-04T09:10:39.573Z,93047.47
2023-01-04T09:13:11.967Z,93050.53
2023-01-04T09:15:44.317Z,93043.59
2023-01-04T09:18:32.936Z,93042.56
2023-01-04T09:21:07.484Z,93047.19
2023-01-04T09:23:40.575Z,93034.84
2023-01-04T09:26:15.506Z,93035.81
2023-01-04T09:28:48.649Z,93034.59
2023-01-04T09:31:23.430Z,93035.97
2023-01-04T09:34:14.604Z,93035.97
2023-01-04T09:36:49.019Z,93030.66
2023-01-04T09:39:23.758Z,93039.69
2023-01-04T09:41:58.849Z,93031.16
2023-01-04T09:45:21.574Z,93028.31
2023-01-04T09:47:39.742Z,93031.25
2023-01-04T09:50:16.724Z,93027.09
2023-01-04T09:53:00.812Z,93031.59
2023-01-04T09:55:40.845Z,93028.56
2023-01-04T09:58:21.939Z,93033.31
2023-01-04T10:01:01.065Z,93022.09
2023-01-04T10:03:35.496Z,93005.78
2023-01-04T10:06:12.179Z,93018.44
2023-01-04T10:08:45.334Z,93025.53
2023-01-04T10:11:28.536Z,93022.94
2023-01-04T10:14:19.086Z,93019.22
2023-01-04T10:17:13.574Z,93019.47
2023-01-04T10:23:03.634Z,93023.69
2023-01-04T10:25:46.663Z,93020.53
2023-01-04T10:28:41.897Z,93021.63
2023-01-04T10:31:40.884Z,93013.75
2023-01-04T10:34:22.721Z,93015.34
2023-01-04T10:36:58.874Z,93014.59
2023-01-04T10:39:35.216Z,93020.56
2023-01-04T10:42:16.854Z,93007.81
2023-01-04T10:45:06.581Z,93022.69
2023-01-04T10:47:49.573Z,93018.84
2023-01-04T10:50:27.409Z,93020.91
2023-01-04T10:53:04.380Z,93011.72
2023-01-04T10:55:47.145Z,93005.63
2023-01-04T10:58:41.914Z,93001.03
2023-01-04T11:01:22.793Z,93005.78
2023-01-04T11:04:01.411Z,93000.41
2023-01-04T11:06:39.708Z,92998.84
2023-01-04T11:09:24.726Z,93000.69
2023-01-04T11:11:58.096Z,92998.84
2023-01-04T11:14:36.990Z,93006.38
2023-01-04T11:17:11.452Z,92999.84
2023-01-04T11:19:44.115Z,92997.19
2023-01-04T11:22:21.917Z,92990.34
2023-01-04T11:25:33.928Z,92984.41
2023-01-04T11:27:58.636Z,92979.50
2023-01-04T11:30:53.294Z,92975.41
2023-01-04T11:33:26.164Z,92978.03
2023-01-04T11:35:58.652Z,92984.78
2023-01-04T11:38:31.040Z,92983.38
2023-01-04T11:41:05.000Z,92974.63
2023-01-04T11:43:38.920Z,92968.94
2023-01-04T11:46:23.603Z,92965.34
2023-01-04T11:48:56.317Z,92972.38
2023-01-04T11:51:38.818Z,92967.22
2023-01-04T11:54:19.521Z,92963.81
2023-01-04T11:57:10.779Z,92954.25
2023-01-04T11:59:43.569Z,92957.66
2023-01-04T12:02:59.641Z,92953.81
2023-01-04T12:05:24.236Z,92952.75
2023-01-04T12:08:01.040Z,92946.78
2023-01-04T12:10:34.103Z,92950.69
2023-01-04T12:13:09.835Z,92947.06
2023-01-04T12:15:53.245Z,92953.09
2023-01-04T12:18:28.867Z,92948.63
2023-01-04T12:21:02.710Z,92944.94
2023-01-04T12:23:35.077Z,92948.06
2023-01-04T12:26:10.665Z,92945.47
2023-01-04T12:28:44.375Z,92947.56
2023-01-04T12:31:30.306Z,92949.94
2023-01-04T12:34:40.887Z,92956.88
2023-01-04T12:37:47.713Z,92954.97
2023-01-04T12:40:54.315Z,92940.94
2023-01-04T12:43:27.242Z,92937.66
2023-01-04T12:46:51.172Z,92937.19
2023-01-04T12:49:51.081Z,92936.91
2023-01-04T12:53:10.080Z,92930.16
2023-01-04T12:55:58.916Z,92925.06
2023-01-04T13:01:36.122Z,92921.13
2023-01-04T13:04:29.984Z,92911.50
2023-01-04T13:07:13.750Z,92910.75
2023-01-04T13:09:51.658Z,92912.53
2023-01-04T13:12:45.574Z,92913.06
2023-01-04T13:15:24.208Z,92911.28
2023-01-04T13:17:58.279Z,92912.06
2023-01-04T13:20:30.779Z,92919.06
2023-01-04T13:23:05.553Z,92915.19
2023-01-04T13:25:37.996Z,92922.69
2023-01-04T13:28:17.315Z,92914.63
2023-01-04T13:30:50.615Z,92923.22
2023-01-04T13:33:26.943Z,92922.19
2023-01-04T13:36:03.844Z,92923.41
2023-01-04T13:38:39.776Z,92921.38
2023-01-04T13:41:20.361Z,92928.13
2023-01-04T13:44:04.488Z,92930.19
2023-01-04T13:46:41.520Z,92930.19
2023-01-04T13:49:16.251Z,92935.41
2023-01-04T13:51:48.624Z,92932.28
2023-01-04T13:54:23.270Z,92935.06
2023-01-04T13:57:08.196Z,92930.69
2023-01-04T13:59:40.623Z,92931.50
2023-01-04T14:02:17.775Z,92918.16
2023-01-04T14:04:50.907Z,92933.22
2023-01-04T14:07:24.521Z,92931.69
2023-01-04T14:10:00.217Z,92934.28
2023-01-04T14:12:32.874Z,92931.69
2023-01-04T14:15:17.674Z,92932.19
2023-01-04T14:17:51.601Z,92926.63
2023-01-04T14:20:35.261Z,92925.41
2023-01-04T14:23:26.360Z,92930.06
2023-01-04T14:25:59.420Z,92927.50
2023-01-04T14:28:41.536Z,92922.78
2023-01-04T14:31:33.684Z,92925.84
2023-01-04T14:34:12.178Z,92923.25
2023-01-04T14:36:44.717Z,92919.66
2023-01-04T14:39:33.267Z,92927.13
2023-01-04T14:42:25.959Z,92921.06
2023-01-04T14:44:58.671Z,92916.53
2023-01-04T14:47:31.007Z,92924.59
2023-01-04T14:50:03.971Z,92927.91
2023-01-04T14:52:36.306Z,92922.59
2023-01-04T14:55:12.675Z,92923.09
2023-01-04T14:57:45.722Z,92925.19
2023-01-04T15:00:19.716Z,92929.09
2023-01-04T15:02:52.601Z,92927.00
2023-01-04T15:05:25.593Z,92923.66
2023-01-04T15:07:57.885Z,92926.97
2023-01-04T15:10:30.402Z,92920.97
2023-01-04T15:13:03.873Z,92921.44
2023-01-04T15:15:36.389Z,92924.63
2023-01-04T15:18:09.174Z,92921.97
2023-01-04T15:20:41.631Z,92922.69
2023-01-04T15:23:14.028Z,92923.53
2023-01-04T15:25:46.426Z,92925.03
2023-01-04T15:28:21.229Z,92930.84
2023-01-04T15:30:53.941Z,92928.28
2023-01-04T15:33:31.341Z,92926.28
2023-01-04T15:36:06.388Z,92926.38
2023-01-04T15:38:38.843Z,92939.72
2023-01-04T15:41:35.326Z,92942.22
2023-01-04T15:44:10.607Z,92934.22
2023-01-04T15:46:43.335Z,92945.38
2023-01-04T15:49:17.935Z,92941.47
2023-01-04T15:51:50.836Z,92943.44
2023-01-04T15:54:25.252Z,92942.97
2023-01-04T15:56:57.841Z,92944.53
2023-01-04T15:59:31.039Z,92951.94
2023-01-04T16:02:03.542Z,92950.06
2023-01-04T16:04:36.092Z,92948.44
2023-01-04T16:07:08.435Z,92941.50
2023-01-04T16:09:40.894Z,92940.00
2023-01-04T16:12:34.015Z,92943.34
2023-01-04T16:15:08.363Z,92945.28
2023-01-04T16:17:42.736Z,92945.31
2023-01-04T16:20:16.845Z,92938.50
2023-01-04T16:22:49.372Z,92949.38
2023-01-04T16:25:21.687Z,92941.66
2023-01-04T16:27:54.104Z,92937.56
2023-01-04T16:30:32.778Z,92935.63
2023-01-04T16:33:05.155Z,92940.81
2023-01-04T16:35:37.521Z,92943.84
2023-01-04T16:38:09.881Z,92943.91
2023-01-04T16:40:42.221Z,92940.03
2023-01-04T16:43:14.615Z,92933.53
2023-01-04T16:45:48.050Z,92936.88
2023-01-04T16:48:20.594Z,92937.69
2023-01-04T16:50:52.956Z,92935.34
2023-01-04T16:53:25.349Z,92939.81
2023-01-04T16:56:02.174Z,92936.56
2023-01-04T16:58:34.978Z,92938.72
2023-01-04T17:01:10.484Z,92940.28
2023-01-04T17:03:44.549Z,92929.81
2023-01-04T17:06:19.158Z,92930.75
2023-01-04T17:08:53.151Z,92935.78
2023-01-04T17:12:18.694Z,92947.47
2023-01-04T17:14:19.816Z,92936.75
2023-01-04T17:16:53.460Z,92942.91
2023-01-04T17:19:25.962Z,92940.47
2023-01-04T17:21:58.330Z,92951.63
2023-01-04T17:24:30.706Z,92950.66
2023-01-04T17:27:03.180Z,92941.50
2023-01-04T17:29:35.566Z,92945.28
2023-01-04T17:32:08.608Z,92944.34
2023-01-04T17:34:41.086Z,92951.31
2023-01-04T17:37:13.403Z,92952.63
2023-01-04T17:39:45.799Z,92945.88
2023-01-04T17:42:18.149Z,92948.78
2023-01-04T17:44:50.624Z,92946.31
2023-01-04T17:47:23.741Z,92952.59
2023-01-04T17:49:56.331Z,92954.81
2023-01-04T17:52:31.143Z,92946.03
2023-01-04T17:55:05.050Z,92946.31
2023-01-04T17:57:37.449Z,92946.63
2023-01-04T18:00:13.922Z,92947.16
2023-01-04T18:02:46.975Z,92944.84
2023-01-04T18:05:19.421Z,92941.31
2023-01-04T18:07:51.754Z,92939.59
2023-01-04T18:10:41.009Z,92944.22
2023-01-04T18:13:16.590Z,92950.63
2023-01-04T18:16:18.294Z,92949.38
2023-01-04T18:18:42.305Z,92946.84
2023-01-04T18:21:28.071Z,92948.78
2023-01-04T18:29:47.158Z,92947.47
2023-01-04T18:32:19.901Z,92949.66
2023-01-04T18:34:53.187Z,92954.41
2023-01-04T18:37:25.937Z,92949.16
2023-01-04T18:39:58.459Z,92961.72
2023-01-04T18:42:31.305Z,92954.94
2023-01-04T18:45:04.375Z,92951.50
2023-01-04T18:47:36.746Z,92958.53
2023-01-04T18:50:10.229Z,92968.03
2023-01-04T18:52:42.873Z,92958.34
2023-01-04T18:55:15.530Z,92961.78
2023-01-04T18:57:48.630Z,92961.31
2023-01-04T19:00:22.301Z,92960.34
2023-01-04T19:02:54.882Z,92951.66
2023-01-04T19:05:28.069Z,92949.91
2023-01-04T19:08:00.505Z,92955.53
2023-01-04T19:10:33.281Z,92956.09
2023-01-04T19:13:05.936Z,92951.22
2023-01-04T19:15:41.312Z,92946.53
2023-01-04T19:18:17.765Z,92951.97
2023-01-04T19:20:50.658Z,92947.91
2023-01-04T19:23:23.145Z,92946.09
2023-01-04T19:25:55.939Z,92935.69
2023-01-04T19:28:28.550Z,92927.91
2023-01-04T19:31:06.646Z,92937.53
2023-01-04T19:33:39.539Z,92927.03
2023-01-04T19:36:14.490Z,92924.50
2023-01-04T19:38:46.933Z,92929.88
2023-01-04T19:41:25.264Z,92911.13
2023-01-04T19:44:02.381Z,92921.38
2023-01-04T19:46:37.332Z,92922.00
2023-01-04T19:49:14.916Z,92921.59
2023-01-04T19:51:50.925Z,92926.84
2023-01-04T19:54:25.771Z,92927.41
2023-01-04T19:56:58.316Z,92923.03
2023-01-04T19:59:30.795Z,92927.22
2023-01-04T20:02:03.355Z,92933.44
2023-01-04T20:04:35.824Z,92924.69
2023-01-04T20:07:08.887Z,92919.25
2023-01-04T20:09:41.488Z,92918.22
2023-01-04T20:12:14.150Z,92915.16
2023-01-04T20:14:46.612Z,92915.94
2023-01-04T20:17:18.988Z,92914.13
2023-01-04T20:19:51.411Z,92914.88
2023-01-04T20:22:24.522Z,92910.72
2023-01-04T20:24:56.865Z,92910.72
2023-01-04T20:27:29.271Z,92909.44
2023-01-04T20:30:01.903Z,92917.78
2023-01-04T20:32:35.561Z,92904.53
2023-01-04T20:35:08.276Z,92905.09
2023-01-04T20:37:41.299Z,92896.03
2023-01-04T20:40:13.957Z,92896.31
2023-01-04T20:43:04.384Z,92891.88
2023-01-04T20:45:41.060Z,92888.00
2023-01-04T20:48:14.727Z,92886.97
2023-01-04T20:50:47.097Z,92890.09
2023-01-04T20:53:20.323Z,92884.91
2023-01-04T20:55:52.699Z,92894.75
2023-01-04T20:58:25.213Z,92883.34
2023-01-04T21:00:57.601Z,92884.09
2023-01-04T21:03:30.575Z,92880.78
2023-01-04T21:06:05.266Z,92877.38
2023-01-04T21:08:40.381Z,92877.09
2023-01-04T21:11:14.084Z,92888.22
2023-01-04T21:13:46.688Z,92885.88
2023-01-04T21:16:19.180Z,92886.66
2023-01-04T21:18:51.742Z,92881.44
2023-01-04T21:21:24.189Z,92881.16
2023-01-04T21:23:58.199Z,92881.94
2023-01-04T21:26:30.752Z,92876.25
2023-01-04T21:29:03.752Z,92882.47
2023-01-04T21:31:36.211Z,92884.28
2023-01-04T21:34:13.008Z,92884.25
2023-01-04T21:36:47.952Z,92875.91
2023-01-04T21:39:20.916Z,92882.88
2023-01-04T21:41:53.442Z,92882.88
2023-01-04T21:44:25.797Z,92879.56
2023-01-04T21:46:58.277Z,92870.75
2023-01-04T21:49:30.718Z,92871.84
2023-01-04T21:52:03.172Z,92866.66
2023-01-04T21:54:36.420Z,92862.19
2023-01-04T21:57:08.868Z,92857.53
2023-01-04T21:59:41.215Z,92854.13
2023-01-04T22:02:15.368Z,92848.94
2023-01-04T22:04:48.082Z,92843.69
2023-01-04T22:07:20.340Z,92852.31
2023-01-04T22:09:57.410Z,92852.31
2023-01-04T22:12:30.248Z,92844.78
2023-01-04T22:15:02.703Z,92852.78
2023-01-04T22:17:35.132Z,92846.13
2023-01-04T22:20:08.388Z,92834.78
2023-01-04T22:22:40.759Z,92845.41
2023-01-04T22:25:13.811Z,92829.34
2023-01-04T22:27:49.124Z,92839.19
2023-01-04T22:30:21.762Z,92834.28
2023-01-04T22:32:54.497Z,92834.53
2023-01-04T22:35:26.821Z,92828.84
2023-01-04T22:37:59.155Z,92823.66
2023-01-04T22:40:32.194Z,92815.38
2023-01-04T22:43:04.704Z,92814.53
2023-01-04T22:45:37.128Z,92817.09
2023-01-04T22:48:09.510Z,92813.69
2023-01-04T22:50:41.853Z,92816.03
2023-01-04T22:53:14.294Z,92817.75
2023-01-04T22:56:17.850Z,92805.25
2023-01-04T22:58:40.476Z,92801.66
2023-01-04T23:01:12.927Z,92801.47
2023-01-04T23:03:46.230Z,92791.09
2023-01-04T23:06:18.892Z,92792.19
2023-01-04T23:08:55.819Z,92789.59
2023-01-04T23:11:31.060Z,92780.47
2023-01-04T23:14:05.200Z,92776.00
2023-01-04T23:16:37.817Z,92772.97
2023-01-04T23:19:12.002Z,92768.31
2023-01-04T23:21:44.360Z,92772.72
2023-01-04T23:24:16.757Z,92772.47
2023-01-04T23:26:49.757Z,92770.94
2023-01-04T23:29:22.389Z,92766.28
2023-01-04T23:31:54.803Z,92770.47
2023-01-04T23:34:28.144Z,92775.88
2023-01-04T23:37:00.947Z,92770.41
2023-01-04T23:39:33.325Z,92769.09
2023-01-04T23:42:07.816Z,92767.00
2023-01-04T23:44:40.224Z,92764.44
2023-01-04T23:47:12.541Z,92752.06
2023-01-04T23:49:45.287Z,92760.09
2023-01-04T23:52:17.591Z,92766.06
2023-01-04T23:54:50.006Z,92756.50
2023-01-04T23:57:23.135Z,92759.16
2023-01-04T23:59:55.539Z,92759.41
